sensor_id;sensor_type;location;lat;lon;timestamp;pressure;altitude;pressure_sealevel;temperature;humidity
19594;BME280;9944;48.240;16.478;2024-02-26T00:03:04;98556.25;;;6.32;67.78
19594;BME280;9944;48.240;16.478;2024-02-26T00:07:28;98550.09;;;6.33;67.58
19594;BME280;9944;48.240;16.478;2024-02-26T00:11:53;98544.00;;;6.30;67.57
19594;BME280;9944;48.240;16.478;2024-02-26T00:16:19;98541.41;;;6.26;67.80
19594;BME280;9944;48.240;16.478;2024-02-26T00:20:43;98541.47;;;6.21;67.59
19594;BME280;9944;48.240;16.478;2024-02-26T00:25:07;98540.63;;;6.16;67.96
19594;BME280;9944;48.240;16.478;2024-02-26T00:29:30;98543.25;;;6.08;68.12
19594;BME280;9944;48.240;16.478;2024-02-26T00:33:56;98540.69;;;6.01;68.64
19594;BME280;9944;48.240;16.478;2024-02-26T00:38:20;98551.19;;;5.95;68.97
19594;BME280;9944;48.240;16.478;2024-02-26T00:42:43;98533.78;;;5.90;69.60
19594;BME280;9944;48.240;16.478;2024-02-26T00:47:08;98532.94;;;5.84;69.95
19594;BME280;9944;48.240;16.478;2024-02-26T00:51:33;98536.44;;;5.80;70.56
19594;BME280;9944;48.240;16.478;2024-02-26T00:55:56;98531.22;;;5.77;70.51
19594;BME280;9944;48.240;16.478;2024-02-26T01:00:21;98533.84;;;5.72;70.83
19594;BME280;9944;48.240;16.478;2024-02-26T01:04:45;98530.44;;;5.64;71.15
19594;BME280;9944;48.240;16.478;2024-02-26T01:09:10;98519.97;;;5.61;71.60
19594;BME280;9944;48.240;16.478;2024-02-26T01:13:33;98507.75;;;5.57;71.61
19594;BME280;9944;48.240;16.478;2024-02-26T01:17:57;98508.63;;;5.57;71.73
19594;BME280;9944;48.240;16.478;2024-02-26T01:22:22;98499.03;;;5.58;72.07
19594;BME280;9944;48.240;16.478;2024-02-26T01:26:47;98492.94;;;5.57;72.21
19594;BME280;9944;48.240;16.478;2024-02-26T01:31:11;98486.81;;;5.55;71.96
19594;BME280;9944;48.240;16.478;2024-02-26T01:35:34;98488.56;;;5.53;72.34
19594;BME280;9944;48.240;16.478;2024-02-26T01:39:58;98490.31;;;5.49;72.31
19594;BME280;9944;48.240;16.478;2024-02-26T01:44:23;98485.09;;;5.48;72.49
19594;BME280;9944;48.240;16.478;2024-02-26T01:48:47;98484.25;;;5.41;72.38
19594;BME280;9944;48.240;16.478;2024-02-26T01:53:12;98472.13;;;5.31;72.48
19594;BME280;9944;48.240;16.478;2024-02-26T01:57:36;98466.91;;;5.19;72.79
19594;BME280;9944;48.240;16.478;2024-02-26T02:02:03;98459.09;;;5.12;73.05
19594;BME280;9944;48.240;16.478;2024-02-26T02:06:28;98467.78;;;5.11;73.31
19594;BME280;9944;48.240;16.478;2024-02-26T02:10:52;98461.72;;;5.08;73.35
19594;BME280;9944;48.240;16.478;2024-02-26T02:15:16;98467.84;;;5.02;73.25
19594;BME280;9944;48.240;16.478;2024-02-26T02:19:42;98461.75;;;5.00;73.59
19594;BME280;9944;48.240;16.478;2024-02-26T02:24:07;98456.53;;;4.97;73.89
19594;BME280;9944;48.240;16.478;2024-02-26T02:28:31;98464.38;;;4.91;73.67
19594;BME280;9944;48.240;16.478;2024-02-26T02:32:55;98454.81;;;4.88;73.72
19594;BME280;9944;48.240;16.478;2024-02-26T02:37:21;98450.47;;;4.83;73.74
19594;BME280;9944;48.240;16.478;2024-02-26T02:41:46;98455.69;;;4.79;73.92
19594;BME280;9944;48.240;16.478;2024-02-26T02:46:10;98445.28;;;4.69;73.07
19594;BME280;9944;48.240;16.478;2024-02-26T02:50:34;98440.03;;;4.61;73.27
19594;BME280;9944;48.240;16.478;2024-02-26T02:54:58;98432.22;;;4.52;73.16
19594;BME280;9944;48.240;16.478;2024-02-26T02:59:22;98420.91;;;4.45;73.56
19594;BME280;9944;48.240;16.478;2024-02-26T03:03:46;98426.16;;;4.37;73.69
19594;BME280;9944;48.240;16.478;2024-02-26T03:08:09;98420.94;;;4.34;73.85
19594;BME280;9944;48.240;16.478;2024-02-26T03:12:33;98422.66;;;4.29;73.94
19594;BME280;9944;48.240;16.478;2024-02-26T03:16:58;98414.81;;;4.23;74.01
19594;BME280;9944;48.240;16.478;2024-02-26T03:21:22;98411.38;;;4.16;74.14
19594;BME280;9944;48.240;16.478;2024-02-26T03:25:46;98402.69;;;4.13;74.51
19594;BME280;9944;48.240;16.478;2024-02-26T03:30:10;98398.31;;;4.12;74.69
19594;BME280;9944;48.240;16.478;2024-02-26T03:34:35;98399.16;;;4.12;74.88
19594;BME280;9944;48.240;16.478;2024-02-26T03:39:01;98394.81;;;4.20;75.54
19594;BME280;9944;48.240;16.478;2024-02-26T03:43:26;98400.03;;;4.28;75.87
19594;BME280;9944;48.240;16.478;2024-02-26T03:47:50;98394.81;;;4.34;76.08
19594;BME280;9944;48.240;16.478;2024-02-26T03:52:15;98393.06;;;4.43;76.37
19594;BME280;9944;48.240;16.478;2024-02-26T03:56:38;98398.25;;;4.52;76.29
19594;BME280;9944;48.240;16.478;2024-02-26T04:01:02;98403.44;;;4.61;76.12
19594;BME280;9944;48.240;16.478;2024-02-26T04:05:26;98391.25;;;4.66;75.89
19594;BME280;9944;48.240;16.478;2024-02-26T04:09:51;98392.97;;;4.73;75.80
19594;BME280;9944;48.240;16.478;2024-02-26T04:14:15;98388.59;;;4.77;76.13
19594;BME280;9944;48.240;16.478;2024-02-26T04:18:38;98380.75;;;4.78;76.07
19594;BME280;9944;48.240;16.478;2024-02-26T04:23:02;98378.13;;;4.78;76.26
19594;BME280;9944;48.240;16.478;2024-02-26T04:27:28;98374.66;;;4.81;76.39
19594;BME280;9944;48.240;16.478;2024-02-26T04:31:51;98382.50;;;4.79;76.62
19594;BME280;9944;48.240;16.478;2024-02-26T04:36:15;98381.63;;;4.81;76.23
19594;BME280;9944;48.240;16.478;2024-02-26T04:40:39;98385.97;;;4.82;76.28
19594;BME280;9944;48.240;16.478;2024-02-26T04:45:05;98383.34;;;4.78;76.39
19594;BME280;9944;48.240;16.478;2024-02-26T04:49:29;98384.25;;;4.77;76.42
19594;BME280;9944;48.240;16.478;2024-02-26T04:53:53;98389.47;;;4.77;76.65
19594;BME280;9944;48.240;16.478;2024-02-26T04:58:17;98383.41;;;4.75;76.80
19594;BME280;9944;48.240;16.478;2024-02-26T05:02:41;98390.34;;;4.73;76.73
19594;BME280;9944;48.240;16.478;2024-02-26T05:07:05;98393.00;;;4.69;76.85
19594;BME280;9944;48.240;16.478;2024-02-26T05:11:29;98385.16;;;4.69;77.31
19594;BME280;9944;48.240;16.478;2024-02-26T05:15:53;98388.63;;;4.68;77.08
19594;BME280;9944;48.240;16.478;2024-02-26T05:20:18;98395.59;;;4.67;77.14
19594;BME280;9944;48.240;16.478;2024-02-26T05:24:42;98392.13;;;4.65;76.95
19594;BME280;9944;48.240;16.478;2024-02-26T05:29:06;98399.97;;;4.64;77.02
19594;BME280;9944;48.240;16.478;2024-02-26T05:33:30;98411.28;;;4.63;77.26
19594;BME280;9944;48.240;16.478;2024-02-26T05:37:55;98406.97;;;4.63;77.28
19594;BME280;9944;48.240;16.478;2024-02-26T05:42:19;98407.81;;;4.60;77.31
19594;BME280;9944;48.240;16.478;2024-02-26T05:46:42;98416.50;;;4.61;77.24
19594;BME280;9944;48.240;16.478;2024-02-26T05:51:06;98413.03;;;4.62;77.23
19594;BME280;9944;48.240;16.478;2024-02-26T05:55:30;98415.66;;;4.62;77.18
19594;BME280;9944;48.240;16.478;2024-02-26T05:59:54;98422.63;;;4.58;77.17
19594;BME280;9944;48.240;16.478;2024-02-26T06:04:18;98432.19;;;4.59;77.39
19594;BME280;9944;48.240;16.478;2024-02-26T06:08:41;98427.88;;;4.60;77.08
19594;BME280;9944;48.240;16.478;2024-02-26T06:13:06;98447.03;;;4.59;77.01
19594;BME280;9944;48.240;16.478;2024-02-26T06:17:30;98449.63;;;4.59;77.01
19594;BME280;9944;48.240;16.478;2024-02-26T06:21:53;98447.88;;;4.63;77.07
19594;BME280;9944;48.240;16.478;2024-02-26T06:26:17;98449.63;;;4.64;77.05
19594;BME280;9944;48.240;16.478;2024-02-26T06:30:42;98445.28;;;4.67;77.22
19594;BME280;9944;48.240;16.478;2024-02-26T06:35:05;98460.94;;;4.70;77.42
19594;BME280;9944;48.240;16.478;2024-02-26T06:39:32;98456.59;;;4.72;77.36
19594;BME280;9944;48.240;16.478;2024-02-26T06:43:55;98465.28;;;4.76;77.58
19594;BME280;9944;48.240;16.478;2024-02-26T06:48:20;98464.44;;;4.75;77.99
19594;BME280;9944;48.240;16.478;2024-02-26T06:52:44;98466.16;;;4.79;77.64
19594;BME280;9944;48.240;16.478;2024-02-26T06:57:08;98453.09;;;4.83;78.00
19594;BME280;9944;48.240;16.478;2024-02-26T07:01:31;98466.13;;;4.89;78.01
19594;BME280;9944;48.240;16.478;2024-02-26T07:05:56;98462.59;;;4.96;78.15
19594;BME280;9944;48.240;16.478;2024-02-26T07:10:20;98454.75;;;5.07;78.17
19594;BME280;9944;48.240;16.478;2024-02-26T07:14:43;98460.81;;;5.20;78.11
19594;BME280;9944;48.240;16.478;2024-02-26T07:19:07;98462.50;;;5.33;77.88
19594;BME280;9944;48.240;16.478;2024-02-26T07:23:32;98457.22;;;5.45;77.87
19594;BME280;9944;48.240;16.478;2024-02-26T07:27:56;98465.84;;;5.60;77.53
19594;BME280;9944;48.240;16.478;2024-02-26T07:32:19;98480.63;;;5.68;77.61
19594;BME280;9944;48.240;16.478;2024-02-26T07:36:42;98479.72;;;5.77;77.22
19594;BME280;9944;48.240;16.478;2024-02-26T07:41:08;98483.16;;;5.87;76.90
19594;BME280;9944;48.240;16.478;2024-02-26T07:45:31;98472.63;;;5.95;76.69
19594;BME280;9944;48.240;16.478;2024-02-26T07:49:55;98463.81;;;6.06;76.72
19594;BME280;9944;48.240;16.478;2024-02-26T07:54:19;98463.72;;;6.19;76.51
19594;BME280;9944;48.240;16.478;2024-02-26T07:58:44;98466.25;;;6.31;76.37
19594;BME280;9944;48.240;16.478;2024-02-26T08:03:07;98472.31;;;6.38;76.12
19594;BME280;9944;48.240;16.478;2024-02-26T08:07:31;98470.50;;;6.49;76.12
19594;BME280;9944;48.240;16.478;2024-02-26T08:11:54;98488.75;;;6.61;75.85
19594;BME280;9944;48.240;16.478;2024-02-26T08:16:19;98487.78;;;6.70;75.79
19594;BME280;9944;48.240;16.478;2024-02-26T08:20:42;98484.19;;;6.80;75.41
19594;BME280;9944;48.240;16.478;2024-02-26T08:25:06;98478.88;;;6.88;75.15
19594;BME280;9944;48.240;16.478;2024-02-26T08:29:31;98486.72;;;6.91;75.14
19594;BME280;9944;48.240;16.478;2024-02-26T08:33:56;98470.00;;;7.01;74.39
19594;BME280;9944;48.240;16.478;2024-02-26T08:38:20;98471.66;;;7.10;74.04
19594;BME280;9944;48.240;16.478;2024-02-26T08:42:44;98474.16;;;7.18;73.69
19594;BME280;9944;48.240;16.478;2024-02-26T08:47:07;98469.66;;;7.31;73.78
19594;BME280;9944;48.240;16.478;2024-02-26T08:51:32;98464.31;;;7.38;73.64
19594;BME280;9944;48.240;16.478;2024-02-26T08:55:55;98467.72;;;7.47;73.40
19594;BME280;9944;48.240;16.478;2024-02-26T09:00:19;98463.16;;;7.58;73.13
19594;BME280;9944;48.240;16.478;2024-02-26T09:04:43;98463.09;;;7.66;72.96
19594;BME280;9944;48.240;16.478;2024-02-26T09:09:08;98471.66;;;7.78;72.49
19594;BME280;9944;48.240;16.478;2024-02-26T09:13:31;98461.03;;;7.88;72.01
19594;BME280;9944;48.240;16.478;2024-02-26T09:17:55;98463.47;;;8.00;71.73
19594;BME280;9944;48.240;16.478;2024-02-26T09:22:18;98463.28;;;8.12;70.97
19594;BME280;9944;48.240;16.478;2024-02-26T09:26:43;98462.25;;;8.23;70.12
19594;BME280;9944;48.240;16.478;2024-02-26T09:31:07;98462.97;;;8.34;70.08
19594;BME280;9944;48.240;16.478;2024-02-26T09:35:30;98477.63;;;8.50;69.57
19594;BME280;9944;48.240;16.478;2024-02-26T09:39:53;98473.03;;;8.62;68.44
19594;BME280;9944;48.240;16.478;2024-02-26T09:44:19;98471.94;;;8.73;68.12
19594;BME280;9944;48.240;16.478;2024-02-26T09:48:43;98470.06;;;8.80;67.49
19594;BME280;9944;48.240;16.478;2024-02-26T09:53:08;98471.63;;;8.92;68.16
19594;BME280;9944;48.240;16.478;2024-02-26T09:57:33;98474.91;;;9.03;67.26
19594;BME280;9944;48.240;16.478;2024-02-26T10:01:59;98476.56;;;9.07;67.20
19594;BME280;9944;48.240;16.478;2024-02-26T10:06:24;98477.22;;;9.20;66.93
19594;BME280;9944;48.240;16.478;2024-02-26T10:10:49;98473.44;;;9.34;66.26
19594;BME280;9944;48.240;16.478;2024-02-26T10:15:13;98473.38;;;9.37;65.43
19594;BME280;9944;48.240;16.478;2024-02-26T10:19:37;98477.59;;;9.44;65.33
19594;BME280;9944;48.240;16.478;2024-02-26T10:24:01;98478.44;;;9.47;64.60
19594;BME280;9944;48.240;16.478;2024-02-26T10:28:25;98477.25;;;9.61;64.48
19594;BME280;9944;48.240;16.478;2024-02-26T10:32:48;98469.06;;;9.75;63.05
19594;BME280;9944;48.240;16.478;2024-02-26T10:37:14;98476.66;;;9.88;63.16
19594;BME280;9944;48.240;16.478;2024-02-26T10:41:38;98458.09;;;9.96;61.77
19594;BME280;9944;48.240;16.478;2024-02-26T10:46:01;98476.34;;;10.04;61.80
19594;BME280;9944;48.240;16.478;2024-02-26T10:50:25;98473.44;;;10.15;60.92
19594;BME280;9944;48.240;16.478;2024-02-26T10:54:53;98461.91;;;10.20;60.96
19594;BME280;9944;48.240;16.478;2024-02-26T10:59:22;98462.53;;;10.30;60.38
19594;BME280;9944;48.240;16.478;2024-02-26T11:03:45;98455.38;;;10.35;59.51
19594;BME280;9944;48.240;16.478;2024-02-26T11:08:10;98455.38;;;10.35;60.00
19594;BME280;9944;48.240;16.478;2024-02-26T11:12:35;98461.28;;;10.47;59.63
19594;BME280;9944;48.240;16.478;2024-02-26T11:17:00;98451.22;;;10.61;59.04
19594;BME280;9944;48.240;16.478;2024-02-26T11:21:23;98450.97;;;10.70;58.97
19594;BME280;9944;48.240;16.478;2024-02-26T11:25:54;98454.16;;;10.85;58.49
19594;BME280;9944;48.240;16.478;2024-02-26T11:30:24;98448.59;;;10.94;58.58
19594;BME280;9944;48.240;16.478;2024-02-26T11:34:49;98455.19;;;11.10;57.53
19594;BME280;9944;48.240;16.478;2024-02-26T11:39:14;98442.38;;;11.28;57.57
19594;BME280;9944;48.240;16.478;2024-02-26T11:43:52;98435.09;;;11.37;57.12
19594;BME280;9944;48.240;16.478;2024-02-26T11:48:21;98427.66;;;11.50;56.28
19594;BME280;9944;48.240;16.478;2024-02-26T11:57:42;98420.47;;;11.55;53.08
19594;BME280;9944;48.240;16.478;2024-02-26T12:02:07;98432.84;;;11.53;52.80
19594;BME280;9944;48.240;16.478;2024-02-26T12:06:40;98420.47;;;11.55;52.31
19594;BME280;9944;48.240;16.478;2024-02-26T12:11:14;98422.13;;;11.60;52.77
19594;BME280;9944;48.240;16.478;2024-02-26T12:15:38;98429.03;;;11.64;52.18
19594;BME280;9944;48.240;16.478;2024-02-26T12:20:09;98426.25;;;11.68;52.11
19594;BME280;9944;48.240;16.478;2024-02-26T12:24:34;98429.72;;;11.70;51.65
19594;BME280;9944;48.240;16.478;2024-02-26T12:28:57;98426.94;;;11.75;52.35
19594;BME280;9944;48.240;16.478;2024-02-26T12:33:21;98413.47;;;11.83;51.91
19594;BME280;9944;48.240;16.478;2024-02-26T12:37:45;98407.88;;;11.92;51.36
19594;BME280;9944;48.240;16.478;2024-02-26T12:42:10;98394.34;;;12.03;51.03
19594;BME280;9944;48.240;16.478;2024-02-26T12:46:34;98395.88;;;12.10;49.31
19594;BME280;9944;48.240;16.478;2024-02-26T12:50:57;98392.09;;;12.17;49.79
19594;BME280;9944;48.240;16.478;2024-02-26T12:55:22;98392.00;;;12.20;49.73
19594;BME280;9944;48.240;16.478;2024-02-26T12:59:46;98395.38;;;12.25;48.46
19594;BME280;9944;48.240;16.478;2024-02-26T13:04:10;98405.53;;;12.38;48.96
19594;BME280;9944;48.240;16.478;2024-02-26T13:08:33;98405.06;;;12.52;49.37
19594;BME280;9944;48.240;16.478;2024-02-26T13:12:57;98402.03;;;12.64;48.37
19594;BME280;9944;48.240;16.478;2024-02-26T13:17:22;98405.53;;;12.64;47.83
19594;BME280;9944;48.240;16.478;2024-02-26T13:21:47;98413.69;;;12.58;48.07
19594;BME280;9944;48.240;16.478;2024-02-26T13:26:11;98426.94;;;12.57;47.88
19594;BME280;9944;48.240;16.478;2024-02-26T13:30:35;98422.50;;;12.59;47.79
19594;BME280;9944;48.240;16.478;2024-02-26T13:35:06;98428.59;;;12.61;47.33
19594;BME280;9944;48.240;16.478;2024-02-26T13:39:30;98436.59;;;12.59;47.47
19594;BME280;9944;48.240;16.478;2024-02-26T13:43:53;98431.28;;;12.59;47.74
19594;BME280;9944;48.240;16.478;2024-02-26T13:48:17;98438.34;;;12.60;46.47
19594;BME280;9944;48.240;16.478;2024-02-26T13:52:42;98440.97;;;12.60;46.48
19594;BME280;9944;48.240;16.478;2024-02-26T13:57:05;98437.31;;;12.64;45.81
19594;BME280;9944;48.240;16.478;2024-02-26T14:01:28;98445.34;;;12.61;45.80
19594;BME280;9944;48.240;16.478;2024-02-26T14:05:53;98443.63;;;12.60;45.90
19594;BME280;9944;48.240;16.478;2024-02-26T14:10:18;98451.72;;;12.54;45.65
19594;BME280;9944;48.240;16.478;2024-02-26T14:14:41;98450.97;;;12.50;45.98
19594;BME280;9944;48.240;16.478;2024-02-26T14:19:05;98443.06;;;12.49;45.35
19594;BME280;9944;48.240;16.478;2024-02-26T14:23:29;98450.06;;;12.52;46.47
19594;BME280;9944;48.240;16.478;2024-02-26T14:27:54;98453.31;;;12.60;46.29
19594;BME280;9944;48.240;16.478;2024-02-26T14:32:18;98454.00;;;12.66;46.18
19594;BME280;9944;48.240;16.478;2024-02-26T14:36:41;98447.66;;;12.72;46.50
19594;BME280;9944;48.240;16.478;2024-02-26T14:41:04;98459.00;;;12.76;46.59
19594;BME280;9944;48.240;16.478;2024-02-26T14:45:30;98448.28;;;12.79;45.83
19594;BME280;9944;48.240;16.478;2024-02-26T14:49:55;98466.00;;;12.77;46.16
19594;BME280;9944;48.240;16.478;2024-02-26T14:54:18;98459.00;;;12.76;45.11
19594;BME280;9944;48.240;16.478;2024-02-26T14:58:42;98464.50;;;12.69;44.87
19594;BME280;9944;48.240;16.478;2024-02-26T15:03:07;98474.47;;;12.61;45.21
19594;BME280;9944;48.240;16.478;2024-02-26T15:07:31;98480.84;;;12.54;45.79
19594;BME280;9944;48.240;16.478;2024-02-26T15:11:55;98479.31;;;12.47;45.50
19594;BME280;9944;48.240;16.478;2024-02-26T15:16:20;98479.69;;;12.36;45.64
19594;BME280;9944;48.240;16.478;2024-02-26T15:20:45;98487.03;;;12.26;46.29
19594;BME280;9944;48.240;16.478;2024-02-26T15:25:09;98490.78;;;12.19;46.27
19594;BME280;9944;48.240;16.478;2024-02-26T15:29:36;98497.25;;;12.10;46.93
19594;BME280;9944;48.240;16.478;2024-02-26T15:34:02;98503.59;;;12.05;47.50
19594;BME280;9944;48.240;16.478;2024-02-26T15:38:27;98496.66;;;12.01;47.76
19594;BME280;9944;48.240;16.478;2024-02-26T15:42:51;98504.75;;;11.96;47.82
19594;BME280;9944;48.240;16.478;2024-02-26T15:47:15;98498.78;;;11.89;47.38
19594;BME280;9944;48.240;16.478;2024-02-26T15:51:40;98504.22;;;11.83;47.90
19594;BME280;9944;48.240;16.478;2024-02-26T15:56:06;98507.97;;;11.76;47.70
19594;BME280;9944;48.240;16.478;2024-02-26T16:00:29;98517.84;;;11.69;48.02
19594;BME280;9944;48.240;16.478;2024-02-26T16:04:53;98517.06;;;11.66;48.40
19594;BME280;9944;48.240;16.478;2024-02-26T16:09:17;98518.97;;;11.61;48.18
19594;BME280;9944;48.240;16.478;2024-02-26T16:13:42;98513.88;;;11.54;48.25
19594;BME280;9944;48.240;16.478;2024-02-26T16:18:06;98503.56;;;11.45;48.22
19594;BME280;9944;48.240;16.478;2024-02-26T16:22:30;98517.00;;;11.37;48.54
19594;BME280;9944;48.240;16.478;2024-02-26T16:26:55;98533.03;;;11.30;48.91
19594;BME280;9944;48.240;16.478;2024-02-26T16:31:20;98542.88;;;11.25;48.61
19594;BME280;9944;48.240;16.478;2024-02-26T16:35:43;98548.31;;;11.18;48.78
19594;BME280;9944;48.240;16.478;2024-02-26T16:40:08;98561.59;;;11.15;49.04
19594;BME280;9944;48.240;16.478;2024-02-26T16:44:33;98559.13;;;11.09;49.38
19594;BME280;9944;48.240;16.478;2024-02-26T16:48:59;98564.50;;;11.05;49.37
19594;BME280;9944;48.240;16.478;2024-02-26T16:53:29;98569.91;;;11.00;49.29
19594;BME280;9944;48.240;16.478;2024-02-26T16:57:54;98578.81;;;10.96;49.56
19594;BME280;9944;48.240;16.478;2024-02-26T17:02:18;98575.34;;;10.94;49.85
19594;BME280;9944;48.240;16.478;2024-02-26T17:06:44;98582.44;;;10.92;50.06
19594;BME280;9944;48.240;16.478;2024-02-26T17:11:07;98579.09;;;10.85;50.21
19594;BME280;9944;48.240;16.478;2024-02-26T17:15:31;98584.47;;;10.80;50.14
19594;BME280;9944;48.240;16.478;2024-02-26T17:19:55;98596.91;;;10.75;50.38
19594;BME280;9944;48.240;16.478;2024-02-26T17:24:21;98588.16;;;10.73;50.69
19594;BME280;9944;48.240;16.478;2024-02-26T17:28:45;98599.56;;;10.74;50.80
19594;BME280;9944;48.240;16.478;2024-02-26T17:33:08;98593.50;;;10.70;50.50
19594;BME280;9944;48.240;16.478;2024-02-26T17:37:32;98605.88;;;10.68;50.57
19594;BME280;9944;48.240;16.478;2024-02-26T17:41:57;98607.69;;;10.66;50.65
19594;BME280;9944;48.240;16.478;2024-02-26T17:46:21;98612.16;;;10.64;51.17
19594;BME280;9944;48.240;16.478;2024-02-26T17:50:45;98616.59;;;10.62;50.83
19594;BME280;9944;48.240;16.478;2024-02-26T17:55:09;98618.47;;;10.57;50.86
19594;BME280;9944;48.240;16.478;2024-02-26T17:59:33;98618.53;;;10.54;50.79
19594;BME280;9944;48.240;16.478;2024-02-26T18:03:57;98623.88;;;10.51;51.05
19594;BME280;9944;48.240;16.478;2024-02-26T18:08:21;98627.50;;;10.47;51.51
19594;BME280;9944;48.240;16.478;2024-02-26T18:12:45;98633.75;;;10.41;51.25
19594;BME280;9944;48.240;16.478;2024-02-26T18:17:10;98634.69;;;10.38;51.58
19594;BME280;9944;48.240;16.478;2024-02-26T18:21:33;98644.44;;;10.36;51.83
19594;BME280;9944;48.240;16.478;2024-02-26T18:25:57;98635.72;;;10.33;51.62
19594;BME280;9944;48.240;16.478;2024-02-26T18:30:21;98631.34;;;10.30;51.76
19594;BME280;9944;48.240;16.478;2024-02-26T18:34:46;98617.34;;;10.28;51.73
19594;BME280;9944;48.240;16.478;2024-02-26T18:39:09;98621.78;;;10.26;51.64
19594;BME280;9944;48.240;16.478;2024-02-26T18:43:33;98623.66;;;10.21;51.82
19594;BME280;9944;48.240;16.478;2024-02-26T18:47:56;98623.69;;;10.19;51.66
19594;BME280;9944;48.240;16.478;2024-02-26T18:52:22;98624.59;;;10.17;51.61
19594;BME280;9944;48.240;16.478;2024-02-26T18:56:45;98634.34;;;10.13;51.78
19594;BME280;9944;48.240;16.478;2024-02-26T19:01:09;98646.72;;;10.10;52.21
19594;BME280;9944;48.240;16.478;2024-02-26T19:05:33;98651.19;;;10.06;52.14
19594;BME280;9944;48.240;16.478;2024-02-26T19:09:57;98649.47;;;10.05;51.59
19594;BME280;9944;48.240;16.478;2024-02-26T19:14:21;98657.53;;;9.96;52.18
19594;BME280;9944;48.240;16.478;2024-02-26T19:18:45;98665.47;;;9.94;52.08
19594;BME280;9944;48.240;16.478;2024-02-26T19:23:09;98669.06;;;9.90;52.33
19594;BME280;9944;48.240;16.478;2024-02-26T19:27:36;98665.63;;;9.85;52.38
19594;BME280;9944;48.240;16.478;2024-02-26T19:32:00;98680.66;;;9.81;52.44
19594;BME280;9944;48.240;16.478;2024-02-26T19:36:25;98683.34;;;9.77;52.21
19594;BME280;9944;48.240;16.478;2024-02-26T19:40:49;98693.97;;;9.74;52.55
19594;BME280;9944;48.240;16.478;2024-02-26T19:45:14;98703.72;;;9.68;52.35
19594;BME280;9944;48.240;16.478;2024-02-26T19:49:39;98708.19;;;9.65;52.72
19594;BME280;9944;48.240;16.478;2024-02-26T19:54:03;98710.00;;;9.61;52.43
19594;BME280;9944;48.240;16.478;2024-02-26T19:58:27;98717.97;;;9.58;52.68
19594;BME280;9944;48.240;16.478;2024-02-26T20:02:52;98729.44;;;9.54;52.58
19594;BME280;9944;48.240;16.478;2024-02-26T20:07:16;98717.22;;;9.50;52.49
19594;BME280;9944;48.240;16.478;2024-02-26T20:11:40;98725.13;;;9.48;52.95
19594;BME280;9944;48.240;16.478;2024-02-26T20:16:05;98733.06;;;9.47;52.75
19594;BME280;9944;48.240;16.478;2024-02-26T20:20:30;98727.84;;;9.44;53.11
19594;BME280;9944;48.240;16.478;2024-02-26T20:24:54;98729.63;;;9.42;53.37
19594;BME280;9944;48.240;16.478;2024-02-26T20:29:17;98731.41;;;9.41;53.17
19594;BME280;9944;48.240;16.478;2024-02-26T20:33:41;98732.38;;;9.37;53.22
19594;BME280;9944;48.240;16.478;2024-02-26T20:38:07;98745.56;;;9.36;53.35
19594;BME280;9944;48.240;16.478;2024-02-26T20:42:31;98745.59;;;9.33;53.01
19594;BME280;9944;48.240;16.478;2024-02-26T20:46:55;98752.66;;;9.30;53.22
19594;BME280;9944;48.240;16.478;2024-02-26T20:51:21;98751.75;;;9.30;53.05
19594;BME280;9944;48.240;16.478;2024-02-26T20:55:46;98756.16;;;9.29;53.40
19594;BME280;9944;48.240;16.478;2024-02-26T21:00:11;98750.91;;;9.28;53.09
19594;BME280;9944;48.240;16.478;2024-02-26T21:04:35;98760.56;;;9.29;53.20
19594;BME280;9944;48.240;16.478;2024-02-26T21:09:00;98757.09;;;9.28;53.60
19594;BME280;9944;48.240;16.478;2024-02-26T21:13:25;98757.97;;;9.27;53.38
19594;BME280;9944;48.240;16.478;2024-02-26T21:17:49;98770.28;;;9.25;53.43
19594;BME280;9944;48.240;16.478;2024-02-26T21:22:13;98772.91;;;9.25;53.23
19594;BME280;9944;48.240;16.478;2024-02-26T21:26:36;98769.44;;;9.25;53.04
19594;BME280;9944;48.240;16.478;2024-02-26T21:31:01;98777.28;;;9.26;52.96
19594;BME280;9944;48.240;16.478;2024-02-26T21:35:25;98780.78;;;9.28;52.77
19594;BME280;9944;48.240;16.478;2024-02-26T21:39:48;98784.34;;;9.24;53.10
19594;BME280;9944;48.240;16.478;2024-02-26T21:44:12;98789.63;;;9.23;52.96
19594;BME280;9944;48.240;16.478;2024-02-26T21:48:38;98787.88;;;9.23;53.30
19594;BME280;9944;48.240;16.478;2024-02-26T21:53:02;98792.28;;;9.21;53.34
19594;BME280;9944;48.240;16.478;2024-02-26T21:57:26;98789.72;;;9.18;53.31
19594;BME280;9944;48.240;16.478;2024-02-26T22:01:50;98784.44;;;9.18;53.28
19594;BME280;9944;48.240;16.478;2024-02-26T22:06:15;98780.09;;;9.12;53.33
19594;BME280;9944;48.240;16.478;2024-02-26T22:10:39;98782.78;;;9.11;53.51
19594;BME280;9944;48.240;16.478;2024-02-26T22:15:04;98784.56;;;9.09;53.56
19594;BME280;9944;48.240;16.478;2024-02-26T22:19:30;98782.88;;;9.05;53.69
19594;BME280;9944;48.240;16.478;2024-02-26T22:23:55;98779.38;;;9.03;53.96
19594;BME280;9944;48.240;16.478;2024-02-26T22:28:18;98785.56;;;9.00;53.88
19594;BME280;9944;48.240;16.478;2024-02-26T22:32:42;98787.38;;;8.95;53.89
19594;BME280;9944;48.240;16.478;2024-02-26T22:37:05;98808.50;;;8.92;54.30
19594;BME280;9944;48.240;16.478;2024-02-26T22:41:32;98819.06;;;8.89;54.14
19594;BME280;9944;48.240;16.478;2024-02-26T22:45:55;98816.44;;;8.87;53.70
19594;BME280;9944;48.240;16.478;2024-02-26T22:50:19;98821.75;;;8.84;54.28
19594;BME280;9944;48.240;16.478;2024-02-26T22:54:42;98826.16;;;8.82;53.98
19594;BME280;9944;48.240;16.478;2024-02-26T22:59:07;98833.22;;;8.79;54.49
19594;BME280;9944;48.240;16.478;2024-02-26T23:03:31;98836.75;;;8.76;54.35
19594;BME280;9944;48.240;16.478;2024-02-26T23:07:56;98844.69;;;8.73;54.27
19594;BME280;9944;48.240;16.478;2024-02-26T23:12:19;98848.25;;;8.67;54.45
19594;BME280;9944;48.240;16.478;2024-02-26T23:16:44;98851.81;;;8.63;54.90
19594;BME280;9944;48.240;16.478;2024-02-26T23:21:08;98851.84;;;8.59;54.78
19594;BME280;9944;48.240;16.478;2024-02-26T23:25:31;98872.94;;;8.55;54.73
19594;BME280;9944;48.240;16.478;2024-02-26T23:29:55;98864.19;;;8.53;54.77
19594;BME280;9944;48.240;16.478;2024-02-26T23:34:20;98866.84;;;8.52;54.77
19594;BME280;9944;48.240;16.478;2024-02-26T23:38:44;98864.25;;;8.47;54.89